createdAt,value
2023-04-18T00:01:31.793Z,34.73
2023-04-18T00:04:02.975Z,31.80
2023-04-18T00:06:33.195Z,32.93
2023-04-18T00:09:04.072Z,46.88
2023-04-18T00:11:34.455Z,73.62
2023-04-18T00:16:34.921Z,68.70
2023-04-18T00:19:08.729Z,61.85
2023-04-18T00:21:38.415Z,58.90
2023-04-18T00:24:08.169Z,56.98
2023-04-18T00:26:37.887Z,44.25
2023-04-18T00:29:07.238Z,37.40
2023-04-18T00:31:37.578Z,44.93
2023-04-18T00:34:07.067Z,31.75
2023-04-18T00:36:36.485Z,39.00
2023-04-18T00:39:07.496Z,33.48
2023-04-18T00:41:36.978Z,33.02
2023-04-18T00:44:06.546Z,41.00
2023-04-18T00:46:36.310Z,41.48
2023-04-18T00:49:06.290Z,43.23
2023-04-18T00:51:37.204Z,43.38
2023-04-18T00:54:08.433Z,42.60
2023-04-18T00:56:38.032Z,45.28
2023-04-18T00:59:11.084Z,37.10
2023-04-18T01:01:41.593Z,42.23
2023-04-18T01:04:11.298Z,39.83
2023-04-18T01:06:43.937Z,45.70
2023-04-18T01:09:14.946Z,46.58
2023-04-18T01:11:46.245Z,47.35
2023-04-18T01:14:20.670Z,70.42
2023-04-18T01:16:50.084Z,59.45
2023-04-18T01:19:21.450Z,73.28
2023-04-18T01:21:52.581Z,74.32
2023-04-18T01:24:24.151Z,74.42
2023-04-18T01:26:54.773Z,90.10
2023-04-18T01:29:24.237Z,81.47
2023-04-18T01:31:53.735Z,75.30
2023-04-18T01:34:23.257Z,82.00
2023-04-18T01:36:52.701Z,68.70
2023-04-18T01:39:22.139Z,84.63
2023-04-18T01:41:51.575Z,70.17
2023-04-18T01:44:21.029Z,80.80
2023-04-18T01:46:51.772Z,78.28
2023-04-18T01:49:21.397Z,90.87
2023-04-18T01:51:51.320Z,74.60
2023-04-18T01:54:25.337Z,85.15
2023-04-18T01:56:54.697Z,87.12
2023-04-18T01:59:24.205Z,68.60
2023-04-18T02:01:56.753Z,70.77
2023-04-18T02:04:26.529Z,72.50
2023-04-18T02:06:59.276Z,70.08
2023-04-18T02:09:28.829Z,61.80
2023-04-18T02:11:59.515Z,70.43
2023-04-18T02:14:33.199Z,70.15
2023-04-18T02:17:02.760Z,69.87
2023-04-18T02:19:32.319Z,72.42
2023-04-18T02:22:06.681Z,77.60
2023-04-18T02:24:36.084Z,66.77
2023-04-18T02:27:06.920Z,61.80
2023-04-18T02:29:37.459Z,65.12
2023-04-18T02:32:07.428Z,59.35
2023-04-18T02:34:39.438Z,52.58
2023-04-18T02:37:08.907Z,63.08
2023-04-18T02:39:40.186Z,66.42
2023-04-18T02:42:09.625Z,70.00
2023-04-18T02:44:39.037Z,69.37
2023-04-18T02:47:08.637Z,64.93
2023-04-18T02:49:40.811Z,72.53
2023-04-18T02:52:11.397Z,61.55
2023-04-18T02:54:40.888Z,57.55
2023-04-18T02:57:13.859Z,60.70
2023-04-18T02:59:57.306Z,63.60
2023-04-18T03:02:46.674Z,61.58
2023-04-18T03:05:25.418Z,65.65
2023-04-18T03:07:56.580Z,61.25
2023-04-18T03:10:26.082Z,64.97
2023-04-18T03:12:55.819Z,49.95
2023-04-18T03:15:25.492Z,60.08
2023-04-18T03:17:55.101Z,59.50
2023-04-18T03:20:25.626Z,62.33
2023-04-18T03:22:56.202Z,54.77
2023-04-18T03:25:27.096Z,50.45
2023-04-18T03:27:56.576Z,73.45
2023-04-18T03:30:26.961Z,43.52
2023-04-18T03:32:57.189Z,68.83
2023-04-18T03:35:28.252Z,60.23
2023-04-18T03:37:58.243Z,56.30
2023-04-18T03:40:29.416Z,53.02
2023-04-18T03:43:00.549Z,54.40
2023-04-18T03:45:30.180Z,56.65
2023-04-18T03:47:59.793Z,54.75
2023-04-18T03:50:29.681Z,58.25
2023-04-18T03:52:59.770Z,54.45
2023-04-18T03:55:30.990Z,60.48
2023-04-18T03:58:02.064Z,55.75
2023-04-18T04:00:33.832Z,54.90
2023-04-18T04:03:05.134Z,54.45
2023-04-18T04:05:34.716Z,47.67
2023-04-18T04:08:05.782Z,50.47
2023-04-18T04:10:35.933Z,56.25
2023-04-18T04:13:08.444Z,48.33
2023-04-18T04:15:40.076Z,50.63
2023-04-18T04:18:12.600Z,55.45
2023-04-18T04:20:44.703Z,50.45
2023-04-18T04:23:15.883Z,53.58
2023-04-18T04:25:46.457Z,51.63
2023-04-18T04:28:24.723Z,45.52
2023-04-18T04:30:56.302Z,50.80
2023-04-18T04:33:32.250Z,50.60
2023-04-18T04:36:03.002Z,49.20
2023-04-18T04:38:34.350Z,42.30
2023-04-18T04:41:07.317Z,54.67
2023-04-18T04:43:37.940Z,49.48
2023-04-18T04:46:07.844Z,55.75
2023-04-18T04:48:37.444Z,43.33
2023-04-18T04:51:06.958Z,38.80
2023-04-18T04:53:37.117Z,45.63
2023-04-18T04:58:36.333Z,43.90
2023-04-18T05:01:11.434Z,44.58
2023-04-18T05:03:41.368Z,50.85
2023-04-18T05:06:10.895Z,38.40
2023-04-18T05:08:40.460Z,39.48
2023-04-18T05:11:09.825Z,40.43
2023-04-18T05:13:39.259Z,35.13
2023-04-18T05:16:08.764Z,38.33
2023-04-18T05:18:39.887Z,36.47
2023-04-18T05:21:09.400Z,33.15
2023-04-18T05:23:38.897Z,43.40
2023-04-18T05:26:08.416Z,42.30
2023-04-18T05:28:37.842Z,39.98
2023-04-18T05:31:07.267Z,42.93
2023-04-18T05:33:36.693Z,32.60
2023-04-18T05:36:06.677Z,27.60
2023-04-18T05:38:36.171Z,40.73
2023-04-18T05:41:05.704Z,35.80
2023-04-18T05:43:35.207Z,41.45
2023-04-18T05:46:04.885Z,35.33
2023-04-18T05:48:34.267Z,32.67
2023-04-18T05:51:04.809Z,38.27
2023-04-18T05:53:34.232Z,32.65
2023-04-18T05:56:03.871Z,39.93
2023-04-18T05:58:33.354Z,28.42
2023-04-18T06:01:02.925Z,36.50
2023-04-18T06:03:32.598Z,29.23
2023-04-18T06:06:02.376Z,37.25
2023-04-18T06:08:31.856Z,31.50
2023-04-18T06:11:01.282Z,29.92
2023-04-18T06:13:30.855Z,30.77
2023-04-18T06:16:01.939Z,36.20
2023-04-18T06:18:31.481Z,32.98
2023-04-18T06:21:01.179Z,38.73
2023-04-18T06:23:30.776Z,34.35
2023-04-18T06:26:00.264Z,25.80
2023-04-18T06:28:29.801Z,26.47
2023-04-18T06:30:59.317Z,35.83
2023-04-18T06:33:28.822Z,47.70
2023-04-18T06:35:59.193Z,30.70
2023-04-18T06:38:28.731Z,35.52
2023-04-18T06:40:58.168Z,43.38
2023-04-18T06:43:27.648Z,32.17
2023-04-18T06:45:57.158Z,40.20
2023-04-18T06:48:26.637Z,27.20
2023-04-18T06:50:56.006Z,30.47
2023-04-18T06:53:25.490Z,36.50
2023-04-18T06:55:55.121Z,39.33
2023-04-18T06:58:24.616Z,27.13
2023-04-18T07:00:54.114Z,37.03
2023-04-18T07:03:23.621Z,32.47
2023-04-18T07:05:53.310Z,26.60
2023-04-18T07:08:22.752Z,35.92
2023-04-18T07:10:52.912Z,32.08
2023-04-18T07:13:22.285Z,26.55
2023-04-18T07:15:51.724Z,36.95
2023-04-18T07:18:34.325Z,43.53
2023-04-18T07:20:52.250Z,37.38
2023-04-18T07:23:21.852Z,39.57
2023-04-18T07:25:51.401Z,39.15
2023-04-18T07:28:21.041Z,41.00
2023-04-18T07:30:50.575Z,39.80
2023-04-18T07:33:20.669Z,44.00
2023-04-18T07:35:50.349Z,47.35
2023-04-18T07:38:19.854Z,35.03
2023-04-18T07:40:57.783Z,37.85
2023-04-18T07:43:27.691Z,39.63
2023-04-18T07:45:57.349Z,34.53
2023-04-18T07:48:26.930Z,30.82
2023-04-18T07:50:56.411Z,43.53
2023-04-18T07:53:26.062Z,37.67
2023-04-18T07:55:55.925Z,34.65
2023-04-18T07:58:25.335Z,37.88
2023-04-18T08:00:54.758Z,24.23
2023-04-18T08:03:24.546Z,35.55
2023-04-18T08:05:54.443Z,45.52
2023-04-18T08:08:23.844Z,31.10
2023-04-18T08:10:53.261Z,29.50
2023-04-18T08:13:22.807Z,31.68
2023-04-18T08:15:52.573Z,28.03
2023-04-18T08:18:23.086Z,27.37
2023-04-18T08:20:52.563Z,36.75
2023-04-18T08:23:22.010Z,32.53
2023-04-18T08:25:51.506Z,36.87
2023-04-18T08:28:20.966Z,38.73
2023-04-18T08:30:51.352Z,52.77
2023-04-18T08:35:50.929Z,33.45
2023-04-18T08:38:20.588Z,28.87
2023-04-18T08:40:50.138Z,37.38
2023-04-18T08:43:19.626Z,37.20
2023-04-18T08:45:49.162Z,29.90
2023-04-18T08:48:19.484Z,36.80
2023-04-18T08:50:48.903Z,29.77
2023-04-18T08:53:18.564Z,38.88
2023-04-18T08:55:49.889Z,34.45
2023-04-18T08:58:24.410Z,35.10
2023-04-18T09:00:54.610Z,39.67
2023-04-18T09:03:44.137Z,30.90
2023-04-18T09:06:17.412Z,33.70
2023-04-18T09:08:59.030Z,29.57
2023-04-18T09:11:31.729Z,35.78
2023-04-18T09:14:02.312Z,26.50
2023-04-18T09:16:34.886Z,33.73
2023-04-18T09:19:17.625Z,31.20
2023-04-18T09:21:48.669Z,31.15
2023-04-18T09:24:24.168Z,30.68
2023-04-18T09:26:55.935Z,40.40
2023-04-18T09:29:45.187Z,40.10
2023-04-18T09:32:29.366Z,38.23
2023-04-18T09:35:04.602Z,36.42
2023-04-18T09:37:34.009Z,31.30
2023-04-18T09:40:06.569Z,30.93
2023-04-18T09:42:38.968Z,33.65
2023-04-18T09:45:09.098Z,33.63
2023-04-18T09:47:38.537Z,42.85
2023-04-18T09:50:10.270Z,42.33
2023-04-18T09:52:42.105Z,30.48
2023-04-18T09:55:17.252Z,46.15
2023-04-18T09:57:48.957Z,41.40
2023-04-18T10:00:26.850Z,36.13
2023-04-18T10:03:08.537Z,32.17
2023-04-18T10:05:41.395Z,26.73
2023-04-18T10:08:11.428Z,29.32
2023-04-18T10:10:41.527Z,30.05
2023-04-18T10:13:14.212Z,27.65
2023-04-18T10:15:45.556Z,31.68
2023-04-18T10:18:17.852Z,29.75
2023-04-18T10:20:48.322Z,26.55
2023-04-18T10:23:38.201Z,31.12
2023-04-18T10:26:08.652Z,33.38
2023-04-18T10:28:53.292Z,32.40
2023-04-18T10:31:25.973Z,25.02
2023-04-18T10:36:29.003Z,42.08
2023-04-18T10:39:06.981Z,41.13
2023-04-18T10:41:38.426Z,24.95
2023-04-18T10:44:12.670Z,28.45
2023-04-18T10:47:01.726Z,19.15
2023-04-18T10:49:34.380Z,22.73
2023-04-18T10:52:06.583Z,36.40
2023-04-18T10:54:58.916Z,30.65
2023-04-18T10:57:30.767Z,24.23
2023-04-18T11:00:00.945Z,24.87
2023-04-18T11:02:33.312Z,23.92
2023-04-18T11:05:04.876Z,29.07
2023-04-18T11:07:49.014Z,25.17
2023-04-18T11:10:20.759Z,22.65
2023-04-18T11:12:50.709Z,22.80
2023-04-18T11:15:24.676Z,23.57
2023-04-18T11:17:59.810Z,21.35
2023-04-18T11:20:30.912Z,24.52
2023-04-18T11:23:01.379Z,34.10
2023-04-18T11:25:35.101Z,21.65
2023-04-18T11:28:05.873Z,31.07
2023-04-18T11:30:39.708Z,17.65
2023-04-18T11:33:13.202Z,21.00
2023-04-18T11:35:45.338Z,26.42
2023-04-18T11:38:16.024Z,23.20
2023-04-18T11:40:52.078Z,22.87
2023-04-18T11:43:25.787Z,22.10
2023-04-18T11:46:00.238Z,27.05
2023-04-18T11:48:38.171Z,16.42
2023-04-18T11:51:09.348Z,21.23
2023-04-18T11:53:39.572Z,20.12
2023-04-18T11:56:09.197Z,15.00
2023-04-18T11:58:38.637Z,16.65
2023-04-18T12:01:20.213Z,17.70
2023-04-18T12:04:09.281Z,12.95
2023-04-18T12:06:54.845Z,13.85
2023-04-18T12:09:25.988Z,12.73
2023-04-18T12:12:04.256Z,13.60
2023-04-18T12:14:35.153Z,11.88
2023-04-18T12:17:05.337Z,12.10
2023-04-18T12:19:34.751Z,9.23
2023-04-18T12:22:06.284Z,15.05
2023-04-18T12:24:36.017Z,29.45
2023-04-18T12:27:05.473Z,10.35
2023-04-18T12:29:34.894Z,12.67
2023-04-18T12:32:04.524Z,9.07
2023-04-18T12:34:33.905Z,16.23
2023-04-18T12:37:04.949Z,6.97
2023-04-18T12:39:34.336Z,4.37
2023-04-18T12:45:28.016Z,8.18
2023-04-18T12:47:57.545Z,15.88
2023-04-18T12:50:28.140Z,7.42
2023-04-18T12:53:00.147Z,8.48
2023-04-18T12:55:29.822Z,37.25
2023-04-18T12:57:59.335Z,8.88
2023-04-18T13:00:31.376Z,4.97
2023-04-18T13:03:01.424Z,5.75
2023-04-18T13:05:33.436Z,5.33
2023-04-18T13:08:15.173Z,5.58
2023-04-18T13:10:33.928Z,9.25
2023-04-18T13:13:03.416Z,5.40
2023-04-18T13:15:33.469Z,9.00
2023-04-18T13:18:04.949Z,5.65
2023-04-18T13:20:36.502Z,8.63
2023-04-18T13:23:06.052Z,6.25
2023-04-18T13:25:35.459Z,5.83
2023-04-18T13:28:05.029Z,5.75
2023-04-18T13:30:35.742Z,13.65
2023-04-18T13:36:41.244Z,12.30
2023-04-18T13:39:11.166Z,8.88
2023-04-18T13:41:40.564Z,7.60
2023-04-18T13:44:10.005Z,15.25
2023-04-18T13:46:39.324Z,6.08
2023-04-18T13:49:08.859Z,14.70
2023-04-18T13:51:38.298Z,7.43
2023-04-18T13:54:07.855Z,10.77
2023-04-18T13:56:37.283Z,7.73
2023-04-18T13:59:06.795Z,10.23
2023-04-18T14:01:36.335Z,11.18
2023-04-18T14:04:06.410Z,6.10
2023-04-18T14:09:06.698Z,11.75
2023-04-18T14:11:36.565Z,14.65
2023-04-18T14:14:06.861Z,21.45
2023-04-18T14:16:36.397Z,13.65
2023-04-18T14:19:05.893Z,8.63
2023-04-18T14:21:35.850Z,7.27
2023-04-18T14:24:06.761Z,13.22
2023-04-18T14:26:36.311Z,15.48
2023-04-18T14:29:06.132Z,8.80
2023-04-18T14:31:35.782Z,10.70
2023-04-18T14:34:05.688Z,5.78
2023-04-18T14:36:36.622Z,7.70
2023-04-18T14:39:06.047Z,10.30
2023-04-18T14:41:35.692Z,9.73
2023-04-18T14:44:05.663Z,6.33
2023-04-18T14:46:35.261Z,7.20
2023-04-18T14:49:04.677Z,5.97
2023-04-18T14:51:34.114Z,16.13
2023-04-18T14:54:03.629Z,8.95
2023-04-18T14:56:33.043Z,10.43
2023-04-18T14:59:02.749Z,14.50
2023-04-18T15:01:32.314Z,17.37
2023-04-18T15:04:03.450Z,14.60
2023-04-18T15:06:33.327Z,15.55
2023-04-18T15:09:02.698Z,12.28
2023-04-18T15:11:32.235Z,9.60
2023-04-18T15:14:01.569Z,11.35
2023-04-18T15:16:32.059Z,14.33
2023-04-18T15:19:01.467Z,15.83
2023-04-18T15:21:30.913Z,16.60
2023-04-18T15:24:00.461Z,7.80
2023-04-18T15:26:31.687Z,9.40
2023-04-18T15:29:04.261Z,9.98
2023-04-18T15:31:34.125Z,15.80
2023-04-18T15:34:03.728Z,11.20
2023-04-18T15:36:33.142Z,16.48
2023-04-18T15:39:06.655Z,11.33
2023-04-18T15:41:37.623Z,19.15
2023-04-18T15:44:08.028Z,14.53
2023-04-18T15:46:38.082Z,10.13
2023-04-18T15:49:07.588Z,10.93
2023-04-18T15:51:37.149Z,24.10
2023-04-18T15:54:06.725Z,10.03
2023-04-18T15:56:36.867Z,11.97
2023-04-18T15:59:07.186Z,16.02
2023-04-18T16:01:36.690Z,13.43
2023-04-18T16:04:06.185Z,10.57
2023-04-18T16:06:35.741Z,12.58
2023-04-18T16:09:06.767Z,9.25
2023-04-18T16:11:36.108Z,20.68
2023-04-18T16:14:05.552Z,11.78
2023-04-18T16:16:34.929Z,25.70
2023-04-18T16:19:05.472Z,7.28
2023-04-18T16:21:34.809Z,10.35
2023-04-18T16:24:04.320Z,17.25
2023-04-18T16:26:33.768Z,25.35
2023-04-18T16:29:03.413Z,20.53
2023-04-18T16:31:33.989Z,7.50
2023-04-18T16:34:03.639Z,22.13
2023-04-18T16:36:37.265Z,29.90
2023-04-18T16:39:06.712Z,16.67
2023-04-18T16:41:36.106Z,30.57
2023-04-18T16:44:05.851Z,15.90
2023-04-18T16:46:35.237Z,25.72
2023-04-18T16:49:04.770Z,15.97
2023-04-18T16:51:35.839Z,11.93
2023-04-18T16:54:06.184Z,23.67
2023-04-18T16:59:04.404Z,24.47
2023-04-18T17:01:33.996Z,14.80
2023-04-18T17:04:04.029Z,10.38
2023-04-18T17:06:33.941Z,8.83
2023-04-18T17:09:05.130Z,21.68
2023-04-18T17:11:38.145Z,10.53
2023-04-18T17:14:08.460Z,14.25
2023-04-18T17:16:41.785Z,15.75
2023-04-18T17:19:12.137Z,14.20
2023-04-18T17:24:10.435Z,8.03
2023-04-18T17:26:40.499Z,8.40
2023-04-18T17:29:10.434Z,6.92
2023-04-18T17:31:39.903Z,10.03
2023-04-18T17:34:09.467Z,9.97
2023-04-18T17:36:38.917Z,12.10
2023-04-18T17:39:09.715Z,20.33
2023-04-18T17:41:40.305Z,12.82
2023-04-18T17:44:10.359Z,22.85
2023-04-18T17:46:39.807Z,14.10
2023-04-18T17:49:09.614Z,7.80
2023-04-18T17:51:38.990Z,11.45
2023-04-18T17:54:08.757Z,8.55
2023-04-18T17:56:38.229Z,8.53
2023-04-18T17:59:07.635Z,5.43
2023-04-18T18:01:37.085Z,9.75
2023-04-18T18:04:06.693Z,29.03
2023-04-18T18:06:36.303Z,14.00
2023-04-18T18:09:05.697Z,12.67
2023-04-18T18:11:35.166Z,13.98
2023-04-18T18:14:04.540Z,10.08
2023-04-18T18:16:34.019Z,9.18
2023-04-18T18:19:03.515Z,13.07
2023-04-18T18:21:33.001Z,10.07
2023-04-18T18:24:02.424Z,17.53
2023-04-18T18:26:31.829Z,9.95
2023-04-18T18:29:02.065Z,9.83
2023-04-18T18:31:31.501Z,13.53
2023-04-18T18:34:01.061Z,6.45
2023-04-18T18:36:31.274Z,7.78
2023-04-18T18:39:00.660Z,8.70
2023-04-18T18:41:30.574Z,14.63
2023-04-18T18:44:00.037Z,11.75
2023-04-18T18:46:29.445Z,18.57
2023-04-18T18:48:58.842Z,8.20
2023-04-18T18:51:29.116Z,8.23
2023-04-18T18:53:58.534Z,10.23
2023-04-18T18:56:28.023Z,15.50
2023-04-18T18:58:57.582Z,4.97
2023-04-18T19:01:28.633Z,9.43
2023-04-18T19:03:58.307Z,7.87
2023-04-18T19:06:28.011Z,8.33
2023-04-18T19:08:57.359Z,13.48
2023-04-18T19:11:27.287Z,13.00
2023-04-18T19:13:56.649Z,11.10
2023-04-18T19:16:26.392Z,10.40
2023-04-18T19:18:55.717Z,12.33
2023-04-18T19:21:25.878Z,14.03
2023-04-18T19:23:55.677Z,11.30
2023-04-18T19:26:25.157Z,10.03
2023-04-18T19:28:54.644Z,10.55
2023-04-18T19:31:24.154Z,9.55
2023-04-18T19:33:53.526Z,11.00
2023-04-18T19:36:22.916Z,5.70
2023-04-18T19:38:52.357Z,15.20
2023-04-18T19:41:21.852Z,16.37
2023-04-18T19:43:51.270Z,8.10
2023-04-18T19:46:20.805Z,9.20
2023-04-18T19:48:50.386Z,19.67
2023-04-18T19:51:19.980Z,16.27
2023-04-18T19:53:49.403Z,15.23
2023-04-18T19:56:18.808Z,9.67
2023-04-18T19:58:49.042Z,9.58
2023-04-18T20:01:21.078Z,20.02
2023-04-18T20:03:50.922Z,18.40
2023-04-18T20:06:20.681Z,21.62
2023-04-18T20:08:50.117Z,22.87
2023-04-18T20:11:19.949Z,29.85
2023-04-18T20:13:49.705Z,35.48
2023-04-18T20:16:19.402Z,31.33
2023-04-18T20:18:49.902Z,18.95
2023-04-18T20:21:19.338Z,12.18
2023-04-18T20:23:48.739Z,27.93
2023-04-18T20:26:18.125Z,17.77
2023-04-18T20:28:47.537Z,7.40
2023-04-18T20:31:17.066Z,11.40
2023-04-18T20:33:46.677Z,12.53
2023-04-18T20:36:17.556Z,10.87
2023-04-18T20:38:47.100Z,10.60
2023-04-18T20:41:18.579Z,10.65
2023-04-18T20:43:48.064Z,18.02
2023-04-18T20:46:17.470Z,14.53
2023-04-18T20:48:46.855Z,11.83
2023-04-18T20:51:16.281Z,9.70
2023-04-18T20:53:45.845Z,9.03
2023-04-18T20:56:15.190Z,14.00
2023-04-18T20:58:44.676Z,14.18
2023-04-18T21:01:14.115Z,15.73
2023-04-18T21:03:43.756Z,9.40
2023-04-18T21:06:13.381Z,7.33
2023-04-18T21:08:42.835Z,16.87
2023-04-18T21:11:12.187Z,11.67
2023-04-18T21:13:41.906Z,9.98
2023-04-18T21:16:11.406Z,7.67
2023-04-18T21:18:40.850Z,14.07
2023-04-18T21:21:10.274Z,15.00
2023-04-18T21:23:44.617Z,19.50
2023-04-18T21:26:14.360Z,19.73
2023-04-18T21:28:57.940Z,28.25
2023-04-18T21:31:29.502Z,12.10
2023-04-18T21:34:00.804Z,16.97
2023-04-18T21:36:31.199Z,7.90
2023-04-18T21:39:01.658Z,26.40
2023-04-18T21:41:31.116Z,11.05
2023-04-18T21:44:00.622Z,18.77
2023-04-18T21:46:30.231Z,14.70
2023-04-18T21:48:59.710Z,16.48
2023-04-18T21:51:29.146Z,11.83
2023-04-18T21:53:59.047Z,29.83
2023-04-18T21:56:28.448Z,8.98
2023-04-18T21:58:57.876Z,28.00
2023-04-18T22:01:27.306Z,7.07
2023-04-18T22:03:56.946Z,10.20
2023-04-18T22:06:26.979Z,12.78
2023-04-18T22:08:56.516Z,13.30
2023-04-18T22:11:26.017Z,14.37
2023-04-18T22:13:57.085Z,16.63
2023-04-18T22:16:28.111Z,11.68
2023-04-18T22:18:57.754Z,14.70
2023-04-18T22:21:27.484Z,12.28
2023-04-18T22:23:56.879Z,21.12
2023-04-18T22:26:26.273Z,10.30
2023-04-18T22:28:55.784Z,12.50
2023-04-18T22:31:25.368Z,12.90
2023-04-18T22:33:54.897Z,7.47
2023-04-18T22:36:24.409Z,9.00
2023-04-18T22:38:53.747Z,7.57
2023-04-18T22:41:23.277Z,9.08
2023-04-18T22:43:52.809Z,10.97
2023-04-18T22:46:22.668Z,9.00
2023-04-18T22:48:51.985Z,8.78
2023-04-18T22:51:23.082Z,6.80
2023-04-18T22:53:52.418Z,20.80
2023-04-18T22:56:21.993Z,19.23
2023-04-18T22:58:51.417Z,12.65
2023-04-18T23:01:20.956Z,19.10
2023-04-18T23:03:50.421Z,11.40
2023-04-18T23:06:21.093Z,7.42
2023-04-18T23:11:18.958Z,16.50
2023-04-18T23:13:48.369Z,16.93
2023-04-18T23:16:17.923Z,24.47
2023-04-18T23:18:47.466Z,11.93
2023-04-18T23:21:17.357Z,11.50
2023-04-18T23:23:46.885Z,13.65
2023-04-18T23:26:16.948Z,10.53
2023-04-18T23:28:46.427Z,12.53
2023-04-18T23:31:16.062Z,12.30
2023-04-18T23:33:45.656Z,8.55
2023-04-18T23:36:14.983Z,14.83
2023-04-18T23:38:44.579Z,18.30
2023-04-18T23:41:14.008Z,14.20
2023-04-18T23:43:43.488Z,22.23
2023-04-18T23:46:12.997Z,9.93
2023-04-18T23:48:42.544Z,19.87
2023-04-18T23:51:11.981Z,17.17
2023-04-18T23:53:41.537Z,17.80
2023-04-18T23:56:10.889Z,18.25
2023-04-18T23:58:40.364Z,30.92
